Payerne Airport LSMP

Airport Data

Name: Payerne Airport

Ident: LSMP

Lat: 46.84320068

Long: 6.915060043

Elevation: 1465 ft

IataCode:

City:

Metar

2021/09/28 05:50
LSMP 280550Z AUTO VRB02KT 5000NDV OVC043 14/10 Q1024 RMK

Taf

2021/09/27 17:00
TAF LSMP 271625Z 2717/2823 VRB02KT 9999 SCT090 PROB30
TEMPO 2720/2722 SHRA FEW050TCU
Add a Webcam Url. We will unlock it as soon is possible. Thank you:
Url: Title: